createdAt,value
2023-06-30T00:00:14.532Z,21.60
2023-06-30T00:02:43.086Z,21.60
2023-06-30T00:05:14.882Z,21.60
2023-06-30T00:07:44.340Z,21.60
2023-06-30T00:10:12.744Z,21.50
2023-06-30T00:12:41.341Z,21.50
2023-06-30T00:15:09.895Z,21.50
2023-06-30T00:17:38.018Z,21.40
2023-06-30T00:20:07.537Z,21.40
2023-06-30T00:22:37.192Z,21.40
2023-06-30T00:25:06.144Z,21.40
2023-06-30T00:27:34.222Z,21.40
2023-06-30T00:30:02.295Z,21.40
2023-06-30T00:32:32.903Z,21.40
2023-06-30T00:35:01.169Z,21.40
2023-06-30T00:37:29.255Z,21.40
2023-06-30T00:39:58.721Z,21.30
2023-06-30T00:42:26.783Z,21.30
2023-06-30T00:44:55.212Z,21.30
2023-06-30T00:47:23.765Z,21.30
2023-06-30T00:49:53.146Z,21.30
2023-06-30T00:52:21.609Z,21.30
2023-06-30T00:54:49.992Z,21.20
2023-06-30T00:57:19.431Z,21.20
2023-06-30T00:59:47.449Z,21.20
2023-06-30T01:02:20.721Z,21.10
2023-06-30T01:04:54.953Z,21.10
2023-06-30T01:07:29.302Z,21.10
2023-06-30T01:10:01.004Z,21.10
2023-06-30T01:12:30.881Z,21.10
2023-06-30T01:14:59.386Z,21.10
2023-06-30T01:17:29.030Z,21.10
2023-06-30T01:19:59.773Z,21.10
2023-06-30T01:22:33.344Z,21.10
2023-06-30T01:25:07.801Z,21.00
2023-06-30T01:27:37.417Z,20.90
2023-06-30T01:30:07.648Z,20.80
2023-06-30T01:32:35.999Z,20.80
2023-06-30T01:35:04.176Z,20.90
2023-06-30T01:37:32.232Z,20.80
2023-06-30T01:40:00.735Z,20.80
2023-06-30T01:42:29.470Z,20.80
2023-06-30T01:45:00.280Z,20.80
2023-06-30T01:47:28.814Z,20.80
2023-06-30T01:49:57.434Z,20.70
2023-06-30T01:52:25.581Z,20.60
2023-06-30T01:54:53.683Z,20.60
2023-06-30T01:57:21.902Z,20.60
2023-06-30T01:59:49.972Z,20.60
2023-06-30T02:02:19.413Z,20.60
2023-06-30T02:04:47.468Z,20.70
2023-06-30T02:07:15.596Z,20.70
2023-06-30T02:09:48.362Z,20.70
2023-06-30T02:12:17.446Z,20.70
2023-06-30T02:14:45.574Z,20.70
2023-06-30T02:17:14.537Z,20.70
2023-06-30T02:19:44.572Z,20.70
2023-06-30T02:22:12.720Z,20.70
2023-06-30T02:24:40.792Z,20.70
2023-06-30T02:27:10.120Z,20.70
2023-06-30T02:29:38.178Z,20.70
2023-06-30T02:32:06.825Z,20.70
2023-06-30T02:34:34.847Z,20.70
2023-06-30T02:37:04.392Z,20.70
2023-06-30T02:39:32.677Z,20.70
2023-06-30T02:42:00.710Z,20.70
2023-06-30T02:44:28.772Z,20.70
2023-06-30T02:46:56.838Z,20.70
2023-06-30T02:49:25.676Z,20.70
2023-06-30T02:51:53.714Z,20.70
2023-06-30T02:54:23.189Z,20.70
2023-06-30T02:56:51.219Z,20.70
2023-06-30T02:59:19.261Z,20.70
2023-06-30T03:01:47.407Z,20.70
2023-06-30T03:04:15.606Z,20.70
2023-06-30T03:06:43.722Z,20.60
2023-06-30T03:09:11.785Z,20.60
2023-06-30T03:11:41.247Z,20.60
2023-06-30T03:14:09.279Z,20.60
2023-06-30T03:16:37.804Z,20.60
2023-06-30T03:19:06.032Z,20.60
2023-06-30T03:21:34.079Z,20.60
2023-06-30T03:24:02.345Z,20.60
2023-06-30T03:26:30.587Z,20.60
2023-06-30T03:29:02.049Z,20.60
2023-06-30T03:31:30.110Z,20.60
2023-06-30T03:34:00.008Z,20.60
2023-06-30T03:36:28.131Z,20.60
2023-06-30T03:38:56.162Z,20.70
2023-06-30T03:41:24.219Z,20.70
2023-06-30T03:43:52.266Z,20.60
2023-06-30T03:46:21.785Z,20.60
2023-06-30T03:48:49.860Z,20.60
2023-06-30T03:51:17.889Z,20.60
2023-06-30T03:53:45.986Z,20.60
2023-06-30T03:56:14.391Z,20.60
2023-06-30T03:58:42.445Z,20.50
2023-06-30T04:01:12.442Z,20.50
2023-06-30T04:03:41.998Z,20.60
2023-06-30T04:06:10.198Z,20.60
2023-06-30T04:08:38.261Z,20.60
2023-06-30T04:11:06.296Z,20.50
2023-06-30T04:13:34.348Z,20.50
2023-06-30T04:16:02.372Z,20.50
2023-06-30T04:18:30.400Z,20.40
2023-06-30T04:20:59.800Z,20.40
2023-06-30T04:23:27.846Z,20.40
2023-06-30T04:25:55.879Z,20.40
2023-06-30T04:28:23.961Z,20.40
2023-06-30T04:30:51.992Z,20.50
2023-06-30T04:33:20.583Z,20.50
2023-06-30T04:35:49.130Z,20.50
2023-06-30T04:38:22.751Z,20.50
2023-06-30T04:40:51.576Z,20.50
2023-06-30T04:43:19.656Z,20.60
2023-06-30T04:45:48.591Z,20.60
2023-06-30T04:48:16.680Z,20.60
2023-06-30T04:50:44.995Z,20.60
2023-06-30T04:53:13.040Z,20.60
2023-06-30T04:55:42.613Z,20.70
2023-06-30T04:58:10.830Z,20.70
2023-06-30T05:00:39.387Z,20.80
2023-06-30T05:03:07.709Z,20.80
2023-06-30T05:05:35.805Z,20.80
2023-06-30T05:08:03.922Z,20.70
2023-06-30T05:10:31.961Z,20.70
2023-06-30T05:13:01.460Z,20.60
2023-06-30T05:15:29.584Z,20.50
2023-06-30T05:17:57.637Z,20.50
2023-06-30T05:20:25.897Z,20.50
2023-06-30T05:22:54.078Z,20.60
2023-06-30T05:25:22.108Z,20.70
2023-06-30T05:27:50.174Z,20.60
2023-06-30T05:30:20.726Z,20.60
2023-06-30T05:32:48.854Z,20.60
2023-06-30T05:35:17.012Z,20.50
2023-06-30T05:37:45.055Z,20.50
2023-06-30T05:40:13.677Z,20.50
2023-06-30T05:42:41.903Z,20.50
2023-06-30T05:45:10.480Z,20.50
2023-06-30T05:47:40.195Z,20.60
2023-06-30T05:50:09.245Z,20.60
2023-06-30T05:52:37.322Z,20.70
2023-06-30T05:55:06.302Z,20.60
2023-06-30T05:57:34.626Z,20.60
2023-06-30T06:00:02.713Z,20.60
2023-06-30T06:02:30.881Z,20.60
2023-06-30T06:05:00.557Z,20.70
2023-06-30T06:07:28.717Z,20.70
2023-06-30T06:09:56.872Z,20.70
2023-06-30T06:12:25.022Z,20.80
2023-06-30T06:14:53.219Z,20.80
2023-06-30T06:17:21.439Z,20.90
2023-06-30T06:19:49.472Z,20.90
2023-06-30T06:22:18.883Z,20.90
2023-06-30T06:24:46.955Z,20.90
2023-06-30T06:27:15.078Z,20.90
2023-06-30T06:29:43.086Z,20.90
2023-06-30T06:32:11.356Z,20.90
2023-06-30T06:34:39.817Z,20.80
2023-06-30T06:37:07.949Z,20.70
2023-06-30T06:39:37.324Z,20.70
2023-06-30T06:42:06.241Z,20.70
2023-06-30T06:44:34.254Z,20.80
2023-06-30T06:47:45.331Z,20.80
2023-06-30T06:50:13.454Z,20.80
2023-06-30T06:52:41.587Z,20.80
2023-06-30T06:55:11.184Z,20.80
2023-06-30T06:57:39.391Z,20.90
2023-06-30T07:00:08.837Z,20.90
2023-06-30T07:02:36.935Z,20.90
2023-06-30T07:05:05.421Z,20.90
2023-06-30T07:07:33.772Z,21.00
2023-06-30T07:10:02.064Z,21.00
2023-06-30T07:12:31.511Z,21.00
2023-06-30T07:14:59.548Z,21.00
2023-06-30T07:17:27.752Z,21.10
2023-06-30T07:19:55.841Z,21.10
2023-06-30T07:22:24.038Z,21.20
2023-06-30T07:24:52.161Z,21.20
2023-06-30T07:27:20.198Z,21.30
2023-06-30T07:29:50.698Z,21.30
2023-06-30T07:32:18.953Z,21.30
2023-06-30T07:34:47.334Z,21.40
2023-06-30T07:37:15.576Z,21.60
2023-06-30T07:39:43.640Z,21.70
2023-06-30T07:42:11.720Z,21.70
2023-06-30T07:44:39.780Z,21.80
2023-06-30T07:47:09.350Z,21.80
2023-06-30T07:49:37.407Z,21.80
2023-06-30T07:52:06.163Z,21.90
2023-06-30T07:54:34.155Z,21.90
2023-06-30T07:57:02.221Z,21.90
2023-06-30T07:59:30.351Z,21.90
2023-06-30T08:01:58.384Z,22.00
2023-06-30T08:04:27.958Z,22.10
2023-06-30T08:06:56.685Z,22.20
2023-06-30T08:09:24.711Z,22.30
2023-06-30T08:11:52.756Z,22.30
2023-06-30T08:14:20.747Z,22.30
2023-06-30T08:16:48.971Z,22.20
2023-06-30T08:19:38.162Z,22.20
2023-06-30T08:22:07.276Z,22.30
2023-06-30T08:24:35.344Z,22.40
2023-06-30T08:27:03.757Z,22.40
2023-06-30T08:29:31.800Z,22.50
2023-06-30T08:31:59.822Z,22.50
2023-06-30T08:34:27.924Z,22.50
2023-06-30T08:36:56.752Z,22.50
2023-06-30T08:39:28.556Z,22.50
2023-06-30T08:41:57.760Z,22.50
2023-06-30T08:44:27.401Z,22.60
2023-06-30T08:46:57.438Z,22.50
2023-06-30T08:49:27.493Z,22.50
2023-06-30T08:55:16.704Z,22.50
2023-06-30T08:57:46.674Z,22.50
2023-06-30T09:00:19.946Z,22.50
2023-06-30T09:03:33.656Z,22.50
2023-06-30T09:06:37.189Z,22.60
2023-06-30T09:09:44.227Z,22.70
2023-06-30T09:12:37.265Z,22.80
2023-06-30T09:15:06.401Z,23.00
2023-06-30T09:17:34.970Z,23.10
2023-06-30T09:20:03.181Z,23.20
2023-06-30T09:22:54.920Z,23.20
2023-06-30T09:25:41.690Z,23.20
2023-06-30T09:28:16.032Z,23.20
2023-06-30T09:30:47.178Z,23.20
2023-06-30T09:33:16.478Z,23.40
2023-06-30T09:35:45.998Z,23.60
2023-06-30T09:38:15.591Z,23.70
2023-06-30T09:40:47.708Z,23.90
2023-06-30T09:43:20.727Z,24.10
2023-06-30T09:45:55.313Z,24.20
2023-06-30T09:48:25.302Z,24.40
2023-06-30T09:50:54.639Z,24.50
2023-06-30T09:53:22.724Z,24.60
2023-06-30T09:55:52.053Z,24.80
2023-06-30T09:58:22.736Z,24.90
2023-06-30T10:00:53.461Z,25.10
2023-06-30T10:03:21.863Z,25.30
2023-06-30T10:05:50.635Z,25.50
2023-06-30T10:08:19.227Z,25.30
2023-06-30T10:10:47.373Z,25.40
2023-06-30T10:13:17.902Z,25.30
2023-06-30T10:15:48.187Z,25.20
2023-06-30T10:18:19.251Z,25.20
2023-06-30T10:20:49.973Z,25.10
2023-06-30T10:23:20.231Z,25.10
2023-06-30T10:25:49.248Z,24.80
2023-06-30T10:28:18.685Z,24.60
2023-06-30T10:30:51.108Z,24.60
2023-06-30T10:33:19.303Z,24.50
2023-06-30T10:35:48.166Z,24.60
2023-06-30T10:38:16.500Z,24.60
2023-06-30T10:40:44.572Z,24.70
2023-06-30T10:43:14.769Z,24.70
2023-06-30T10:46:11.327Z,24.70
2023-06-30T10:48:41.952Z,24.70
2023-06-30T10:51:13.658Z,24.70
2023-06-30T10:53:44.817Z,24.70
2023-06-30T10:56:12.935Z,24.60
2023-06-30T10:58:44.170Z,24.60
2023-06-30T11:01:16.719Z,24.70
2023-06-30T11:04:21.201Z,24.70
2023-06-30T11:07:04.487Z,24.80
2023-06-30T11:10:07.407Z,25.00
2023-06-30T11:12:54.424Z,25.20
2023-06-30T11:15:39.788Z,25.30
2023-06-30T11:18:13.002Z,25.60
2023-06-30T11:20:58.650Z,25.70
2023-06-30T11:23:28.800Z,25.90
2023-06-30T11:25:59.295Z,26.20
2023-06-30T11:28:28.182Z,26.30
2023-06-30T11:30:56.413Z,26.30
2023-06-30T11:33:26.566Z,26.40
2023-06-30T11:36:00.316Z,26.30
2023-06-30T11:38:28.577Z,26.30
2023-06-30T11:41:01.323Z,26.30
2023-06-30T11:43:34.460Z,26.30
2023-06-30T11:46:03.117Z,26.30
2023-06-30T11:48:39.834Z,26.30
2023-06-30T11:51:08.106Z,26.30
2023-06-30T11:53:36.130Z,26.30
2023-06-30T11:56:04.302Z,26.10
2023-06-30T11:58:32.369Z,25.90
2023-06-30T12:01:04.709Z,25.80
2023-06-30T12:03:34.257Z,25.80
2023-06-30T12:06:02.676Z,25.80
2023-06-30T12:08:31.877Z,25.80
2023-06-30T12:11:00.105Z,25.80
2023-06-30T12:13:30.160Z,25.80
2023-06-30T12:15:59.201Z,25.90
2023-06-30T12:18:37.727Z,25.90
2023-06-30T12:21:10.646Z,25.90
2023-06-30T12:23:42.349Z,25.80
2023-06-30T12:26:10.464Z,25.80
2023-06-30T12:28:38.753Z,25.70
2023-06-30T12:31:06.857Z,25.50
2023-06-30T12:33:36.316Z,25.40
2023-06-30T12:36:06.799Z,25.30
2023-06-30T12:38:35.047Z,25.20
2023-06-30T12:41:03.739Z,25.10
2023-06-30T12:43:34.422Z,25.00
2023-06-30T12:46:02.989Z,24.80
2023-06-30T12:48:31.682Z,24.80
2023-06-30T12:51:01.167Z,24.60
2023-06-30T12:53:29.356Z,24.50
2023-06-30T12:55:57.386Z,24.20
2023-06-30T12:58:26.299Z,23.80
2023-06-30T13:01:00.927Z,23.40
2023-06-30T13:03:29.447Z,23.30
2023-06-30T13:05:57.546Z,23.00
2023-06-30T13:08:26.966Z,22.90
2023-06-30T13:10:56.000Z,22.70
2023-06-30T13:13:24.405Z,22.70
2023-06-30T13:15:54.005Z,22.60
2023-06-30T13:18:22.041Z,22.40
2023-06-30T13:20:50.083Z,22.30
2023-06-30T13:23:28.001Z,22.20
2023-06-30T13:26:07.296Z,22.10
2023-06-30T13:28:35.496Z,22.10
2023-06-30T13:31:04.643Z,22.10
2023-06-30T13:33:32.967Z,22.00
2023-06-30T13:36:01.432Z,22.10
2023-06-30T13:38:29.592Z,22.10
2023-06-30T13:40:57.652Z,22.00
2023-06-30T13:43:27.356Z,22.00
2023-06-30T13:45:56.352Z,22.00
2023-06-30T13:48:24.390Z,22.00
2023-06-30T13:50:52.504Z,22.00
2023-06-30T13:53:20.731Z,22.00
2023-06-30T13:55:49.053Z,22.10
2023-06-30T13:58:17.399Z,22.00
2023-06-30T14:00:48.152Z,22.00
2023-06-30T14:03:17.577Z,21.90
2023-06-30T14:05:46.478Z,21.90
2023-06-30T14:08:14.907Z,22.00
2023-06-30T14:10:43.166Z,22.00
2023-06-30T14:13:11.478Z,22.10
2023-06-30T14:15:50.880Z,22.10
2023-06-30T14:18:18.905Z,22.10
2023-06-30T14:20:48.642Z,22.10
2023-06-30T14:23:16.919Z,22.00
2023-06-30T14:25:45.179Z,22.10
2023-06-30T14:28:13.509Z,22.00
2023-06-30T14:30:41.586Z,22.00
2023-06-30T14:33:10.982Z,22.00
2023-06-30T14:35:39.139Z,22.00
2023-06-30T14:38:07.199Z,22.00
2023-06-30T14:40:35.314Z,22.00
2023-06-30T14:43:05.057Z,22.00
2023-06-30T14:45:33.302Z,22.10
2023-06-30T14:48:01.420Z,22.10
2023-06-30T14:50:30.864Z,22.20
2023-06-30T14:52:58.918Z,22.20
2023-06-30T14:55:26.978Z,22.20
2023-06-30T14:57:55.033Z,22.20
2023-06-30T15:00:23.202Z,22.20
2023-06-30T15:02:51.358Z,22.20
2023-06-30T15:05:19.580Z,22.20
2023-06-30T15:07:49.051Z,22.10
2023-06-30T15:10:17.055Z,22.10
2023-06-30T15:12:45.105Z,22.10
2023-06-30T15:15:13.156Z,22.10
2023-06-30T15:17:41.228Z,22.10
2023-06-30T15:20:10.240Z,22.20
2023-06-30T15:22:38.286Z,22.10
2023-06-30T15:25:08.528Z,22.10
2023-06-30T15:27:36.659Z,22.20
2023-06-30T15:30:07.273Z,22.10
2023-06-30T15:32:35.995Z,22.00
2023-06-30T15:35:05.856Z,22.00
2023-06-30T15:37:33.906Z,21.90
2023-06-30T15:40:02.646Z,21.80
2023-06-30T15:42:32.812Z,21.80
2023-06-30T15:45:01.062Z,21.80
2023-06-30T15:47:29.233Z,21.80
2023-06-30T15:49:57.328Z,21.70
2023-06-30T15:52:25.368Z,21.50
2023-06-30T15:55:10.040Z,21.30
2023-06-30T15:57:39.929Z,21.20
2023-06-30T16:00:10.425Z,21.20
2023-06-30T16:02:39.060Z,21.00
2023-06-30T16:05:09.388Z,20.80
2023-06-30T16:07:37.801Z,20.80
2023-06-30T16:10:06.977Z,20.70
2023-06-30T16:12:35.509Z,20.80
2023-06-30T16:15:07.155Z,20.70
2023-06-30T16:17:35.282Z,20.50
2023-06-30T16:20:03.590Z,20.50
2023-06-30T16:22:31.644Z,20.40
2023-06-30T16:24:59.735Z,20.40
2023-06-30T16:27:28.270Z,20.40
2023-06-30T16:30:27.574Z,20.50
2023-06-30T16:32:58.757Z,20.60
2023-06-30T16:35:27.441Z,20.70
2023-06-30T16:37:56.377Z,20.70
2023-06-30T16:40:24.634Z,20.70
2023-06-30T16:42:53.871Z,20.70
2023-06-30T16:45:22.131Z,20.70
2023-06-30T16:47:51.678Z,20.70
2023-06-30T16:50:19.897Z,20.70
2023-06-30T16:52:48.019Z,20.80
2023-06-30T16:55:16.125Z,20.80
2023-06-30T16:57:44.704Z,20.90
2023-06-30T17:00:14.009Z,21.00
2023-06-30T17:02:42.153Z,21.00
2023-06-30T17:05:12.209Z,20.90
2023-06-30T17:07:40.365Z,20.90
2023-06-30T17:10:09.036Z,20.80
2023-06-30T17:12:39.334Z,20.80
2023-06-30T17:15:10.061Z,20.80
2023-06-30T17:17:38.756Z,20.90
2023-06-30T17:20:08.345Z,20.90
2023-06-30T17:22:38.432Z,20.90
2023-06-30T17:25:07.589Z,20.80
2023-06-30T17:27:35.627Z,20.80
2023-06-30T17:30:04.121Z,20.90
2023-06-30T17:32:32.341Z,20.90
2023-06-30T17:35:00.494Z,20.90
2023-06-30T17:37:28.545Z,20.90
2023-06-30T17:39:57.997Z,20.80
2023-06-30T17:42:26.040Z,20.80
2023-06-30T17:44:54.220Z,20.70
2023-06-30T17:47:22.284Z,20.70
2023-06-30T17:49:50.320Z,20.70
2023-06-30T17:52:18.365Z,20.70
2023-06-30T17:54:47.451Z,20.80
2023-06-30T17:57:16.926Z,20.80
2023-06-30T17:59:44.965Z,20.80
2023-06-30T18:02:13.439Z,20.80
2023-06-30T18:04:42.099Z,20.80
2023-06-30T18:07:12.478Z,20.90
2023-06-30T18:09:42.383Z,20.90
2023-06-30T18:12:11.441Z,21.00
2023-06-30T18:14:42.562Z,21.00
2023-06-30T18:17:10.794Z,21.00
2023-06-30T18:19:41.840Z,21.10
2023-06-30T18:22:10.046Z,21.10
2023-06-30T18:24:43.966Z,21.00
2023-06-30T18:27:12.313Z,21.00
2023-06-30T18:29:43.066Z,21.10
2023-06-30T18:32:11.376Z,21.10
2023-06-30T18:34:39.628Z,21.10
2023-06-30T18:37:08.274Z,21.00
2023-06-30T18:39:36.954Z,21.00
2023-06-30T18:42:05.435Z,20.90
2023-06-30T18:44:36.052Z,20.90
2023-06-30T18:47:06.252Z,20.90
2023-06-30T18:49:34.864Z,20.90
2023-06-30T18:52:08.352Z,20.90
2023-06-30T18:54:36.415Z,20.90
2023-06-30T18:57:04.840Z,20.90
2023-06-30T18:59:32.896Z,20.80
2023-06-30T19:02:00.954Z,20.80
2023-06-30T19:04:30.406Z,20.80
2023-06-30T19:06:58.483Z,20.80
2023-06-30T19:09:28.078Z,20.80
2023-06-30T19:11:58.627Z,20.80
2023-06-30T19:14:27.658Z,20.80
2023-06-30T19:16:55.757Z,20.90
2023-06-30T19:19:24.698Z,20.90
2023-06-30T19:21:54.297Z,20.90
2023-06-30T19:24:22.307Z,20.80
2023-06-30T19:26:50.621Z,20.80
2023-06-30T19:29:18.704Z,20.80
2023-06-30T19:31:46.856Z,20.80
2023-06-30T19:34:14.909Z,20.80
2023-06-30T19:36:43.023Z,20.80
2023-06-30T19:39:12.459Z,20.90
2023-06-30T19:41:40.611Z,20.80
2023-06-30T19:44:08.656Z,20.80
2023-06-30T19:46:36.857Z,20.70
2023-06-30T19:49:04.948Z,20.70
2023-06-30T19:51:33.063Z,20.70
2023-06-30T19:54:01.083Z,20.70
2023-06-30T19:56:30.525Z,20.50
2023-06-30T19:58:58.543Z,20.40
2023-06-30T20:01:27.624Z,20.40
2023-06-30T20:03:55.802Z,20.30
2023-06-30T20:06:23.908Z,20.30
2023-06-30T20:08:52.078Z,20.30
2023-06-30T20:11:20.204Z,20.20
2023-06-30T20:13:49.659Z,20.20
2023-06-30T20:16:17.757Z,20.20
2023-06-30T20:18:45.867Z,20.10
2023-06-30T20:21:14.258Z,20.10
2023-06-30T20:23:42.333Z,20.10
2023-06-30T20:26:10.400Z,20.10
2023-06-30T20:28:38.477Z,20.10
2023-06-30T20:31:07.898Z,20.20
2023-06-30T20:33:36.023Z,20.20
2023-06-30T20:36:04.194Z,20.10
2023-06-30T20:38:32.332Z,20.10
2023-06-30T20:41:00.412Z,20.10
2023-06-30T20:43:28.452Z,20.00
2023-06-30T20:45:56.922Z,20.00
2023-06-30T20:48:26.427Z,20.00
2023-06-30T20:50:54.594Z,20.10
2023-06-30T20:53:22.661Z,20.10
2023-06-30T20:55:51.629Z,20.00
2023-06-30T20:58:20.385Z,20.00
2023-06-30T21:00:56.112Z,20.10
2023-06-30T21:03:24.296Z,20.10
2023-06-30T21:05:53.811Z,20.10
2023-06-30T21:08:22.914Z,20.10
2023-06-30T21:10:52.404Z,20.10
2023-06-30T21:13:20.509Z,20.10
2023-06-30T21:15:48.609Z,20.00
2023-06-30T21:18:16.696Z,19.90
2023-06-30T21:20:45.138Z,19.90
2023-06-30T21:23:14.804Z,19.90
2023-06-30T21:25:43.596Z,19.90
2023-06-30T21:28:20.120Z,19.90
2023-06-30T21:30:48.382Z,19.90
2023-06-30T21:33:18.050Z,19.90
2023-06-30T21:35:46.253Z,19.90
2023-06-30T21:38:15.850Z,20.00
2023-06-30T21:40:46.197Z,20.00
2023-06-30T21:43:14.506Z,20.00
2023-06-30T21:45:42.835Z,20.00
2023-06-30T21:48:12.523Z,19.90
2023-06-30T21:50:41.792Z,19.90
2023-06-30T21:53:09.825Z,19.90
2023-06-30T21:55:39.309Z,19.90
2023-06-30T21:58:18.478Z,19.90
2023-06-30T22:00:51.227Z,19.90
2023-06-30T22:03:19.711Z,19.80
2023-06-30T22:05:47.898Z,19.70
2023-06-30T22:08:16.162Z,19.70
2023-06-30T22:10:46.229Z,19.70
2023-06-30T22:13:14.465Z,19.70
2023-06-30T22:15:42.701Z,19.70
2023-06-30T22:18:10.917Z,19.70
2023-06-30T22:20:38.933Z,19.70
2023-06-30T22:23:07.013Z,19.70
2023-06-30T22:25:35.304Z,19.80
2023-06-30T22:28:05.070Z,19.80
2023-06-30T22:30:33.654Z,19.90
2023-06-30T22:33:01.715Z,19.90
2023-06-30T22:35:29.806Z,19.90
2023-06-30T22:37:57.906Z,19.90
2023-06-30T22:40:25.950Z,19.80
2023-06-30T22:42:54.773Z,19.90
2023-06-30T22:45:24.359Z,19.80
2023-06-30T22:47:52.423Z,19.80
2023-06-30T22:50:21.376Z,19.80
2023-06-30T22:52:49.474Z,19.80
2023-06-30T22:55:17.520Z,19.80
2023-06-30T22:57:45.664Z,19.80
2023-06-30T23:00:14.963Z,19.80
2023-06-30T23:02:44.402Z,19.80
2023-06-30T23:05:12.820Z,19.80
2023-06-30T23:07:40.898Z,19.80
2023-06-30T23:10:10.028Z,19.70
2023-06-30T23:12:38.107Z,19.60
2023-06-30T23:15:06.995Z,19.60
2023-06-30T23:17:35.467Z,19.60
2023-06-30T23:20:05.622Z,19.60
2023-06-30T23:22:33.788Z,19.60
2023-06-30T23:25:02.980Z,19.60
2023-06-30T23:27:31.039Z,19.60
2023-06-30T23:29:59.517Z,19.60
2023-06-30T23:32:27.721Z,19.60
2023-06-30T23:34:55.830Z,19.60
2023-06-30T23:37:25.238Z,19.60
2023-06-30T23:39:53.417Z,19.60
2023-06-30T23:42:21.578Z,19.60
2023-06-30T23:44:49.645Z,19.60
2023-06-30T23:47:18.605Z,19.60
2023-06-30T23:49:48.508Z,19.60
2023-06-30T23:52:17.392Z,19.60
2023-06-30T23:54:46.797Z,19.60
2023-06-30T23:57:14.895Z,19.60
2023-06-30T23:59:42.961Z,19.60
